sensor_id;sensor_type;location;lat;lon;timestamp;P1;durP1;ratioP1;P2;durP2;ratioP2
48751;SDS011;34544;48.836;9.174;2023-04-28T00:02:10;9.50;;;7.15;;
48751;SDS011;34544;48.836;9.174;2023-04-28T00:04:36;10.45;;;7.53;;
48751;SDS011;34544;48.836;9.174;2023-04-28T00:07:02;8.90;;;7.13;;
48751;SDS011;34544;48.836;9.174;2023-04-28T00:09:28;10.50;;;6.85;;
48751;SDS011;34544;48.836;9.174;2023-04-28T00:11:53;11.13;;;6.85;;
48751;SDS011;34544;48.836;9.174;2023-04-28T00:14:19;8.95;;;7.28;;
48751;SDS011;34544;48.836;9.174;2023-04-28T00:16:44;15.07;;;7.20;;
48751;SDS011;34544;48.836;9.174;2023-04-28T00:19:10;12.00;;;7.28;;
48751;SDS011;34544;48.836;9.174;2023-04-28T00:21:36;11.52;;;6.82;;
48751;SDS011;34544;48.836;9.174;2023-04-28T00:24:01;21.40;;;8.57;;
48751;SDS011;34544;48.836;9.174;2023-04-28T00:26:27;9.32;;;7.47;;
48751;SDS011;34544;48.836;9.174;2023-04-28T00:28:53;9.23;;;7.35;;
48751;SDS011;34544;48.836;9.174;2023-04-28T00:31:18;10.60;;;7.13;;
48751;SDS011;34544;48.836;9.174;2023-04-28T00:33:44;10.52;;;6.40;;
48751;SDS011;34544;48.836;9.174;2023-04-28T00:36:10;13.75;;;6.82;;
48751;SDS011;34544;48.836;9.174;2023-04-28T00:38:36;7.88;;;5.78;;
48751;SDS011;34544;48.836;9.174;2023-04-28T00:41:02;18.30;;;6.80;;
48751;SDS011;34544;48.836;9.174;2023-04-28T00:43:28;11.57;;;6.53;;
48751;SDS011;34544;48.836;9.174;2023-04-28T00:45:53;13.80;;;7.25;;
48751;SDS011;34544;48.836;9.174;2023-04-28T00:48:20;7.97;;;6.22;;
48751;SDS011;34544;48.836;9.174;2023-04-28T00:50:46;7.75;;;6.25;;
48751;SDS011;34544;48.836;9.174;2023-04-28T00:53:13;10.93;;;6.40;;
48751;SDS011;34544;48.836;9.174;2023-04-28T00:55:39;13.15;;;7.10;;
48751;SDS011;34544;48.836;9.174;2023-04-28T00:58:05;10.18;;;5.70;;
48751;SDS011;34544;48.836;9.174;2023-04-28T01:00:31;14.85;;;6.13;;
48751;SDS011;34544;48.836;9.174;2023-04-28T01:02:57;9.77;;;6.07;;
48751;SDS011;34544;48.836;9.174;2023-04-28T01:05:25;8.90;;;6.07;;
48751;SDS011;34544;48.836;9.174;2023-04-28T01:07:51;12.90;;;6.93;;
48751;SDS011;34544;48.836;9.174;2023-04-28T01:10:17;11.27;;;5.60;;
48751;SDS011;34544;48.836;9.174;2023-04-28T01:12:43;11.93;;;6.28;;
48751;SDS011;34544;48.836;9.174;2023-04-28T01:15:09;8.25;;;5.75;;
48751;SDS011;34544;48.836;9.174;2023-04-28T01:17:41;12.18;;;7.07;;
48751;SDS011;34544;48.836;9.174;2023-04-28T01:20:07;10.23;;;6.40;;
48751;SDS011;34544;48.836;9.174;2023-04-28T01:22:34;10.10;;;6.13;;
48751;SDS011;34544;48.836;9.174;2023-04-28T01:25:00;11.50;;;6.10;;
48751;SDS011;34544;48.836;9.174;2023-04-28T01:27:28;8.85;;;6.00;;
48751;SDS011;34544;48.836;9.174;2023-04-28T01:29:53;11.57;;;6.53;;
48751;SDS011;34544;48.836;9.174;2023-04-28T01:32:19;11.00;;;6.45;;
48751;SDS011;34544;48.836;9.174;2023-04-28T01:34:45;6.65;;;5.28;;
48751;SDS011;34544;48.836;9.174;2023-04-28T01:37:12;11.05;;;6.32;;
48751;SDS011;34544;48.836;9.174;2023-04-28T01:39:38;11.23;;;6.88;;
48751;SDS011;34544;48.836;9.174;2023-04-28T01:42:03;8.38;;;6.28;;
48751;SDS011;34544;48.836;9.174;2023-04-28T01:44:29;11.05;;;6.35;;
48751;SDS011;34544;48.836;9.174;2023-04-28T01:46:55;8.40;;;5.55;;
48751;SDS011;34544;48.836;9.174;2023-04-28T01:49:21;14.00;;;6.47;;
48751;SDS011;34544;48.836;9.174;2023-04-28T01:51:46;10.18;;;6.40;;
48751;SDS011;34544;48.836;9.174;2023-04-28T01:54:12;11.73;;;6.05;;
48751;SDS011;34544;48.836;9.174;2023-04-28T01:56:38;7.85;;;6.30;;
48751;SDS011;34544;48.836;9.174;2023-04-28T01:59:05;10.50;;;6.32;;
48751;SDS011;34544;48.836;9.174;2023-04-28T02:01:32;10.48;;;6.25;;
48751;SDS011;34544;48.836;9.174;2023-04-28T02:03:58;8.18;;;6.15;;
48751;SDS011;34544;48.836;9.174;2023-04-28T02:06:24;6.78;;;5.35;;
48751;SDS011;34544;48.836;9.174;2023-04-28T02:08:51;8.55;;;6.60;;
48751;SDS011;34544;48.836;9.174;2023-04-28T02:11:17;8.48;;;6.80;;
48751;SDS011;34544;48.836;9.174;2023-04-28T02:13:43;8.10;;;6.05;;
48751;SDS011;34544;48.836;9.174;2023-04-28T02:16:08;8.23;;;5.78;;
48751;SDS011;34544;48.836;9.174;2023-04-28T02:18:34;7.82;;;5.70;;
48751;SDS011;34544;48.836;9.174;2023-04-28T02:21:09;10.25;;;6.68;;
48751;SDS011;34544;48.836;9.174;2023-04-28T02:23:36;6.28;;;4.55;;
48751;SDS011;34544;48.836;9.174;2023-04-28T02:26:03;7.03;;;5.55;;
48751;SDS011;34544;48.836;9.174;2023-04-28T02:28:29;7.50;;;6.00;;
48751;SDS011;34544;48.836;9.174;2023-04-28T02:31:03;8.75;;;5.93;;
48751;SDS011;34544;48.836;9.174;2023-04-28T02:33:32;11.85;;;5.55;;
48751;SDS011;34544;48.836;9.174;2023-04-28T02:36:02;8.38;;;5.63;;
48751;SDS011;34544;48.836;9.174;2023-04-28T02:38:29;10.57;;;5.93;;
48751;SDS011;34544;48.836;9.174;2023-04-28T02:41:05;9.18;;;5.60;;
48751;SDS011;34544;48.836;9.174;2023-04-28T02:43:33;10.23;;;5.80;;
48751;SDS011;34544;48.836;9.174;2023-04-28T02:45:59;10.15;;;5.32;;
48751;SDS011;34544;48.836;9.174;2023-04-28T02:48:26;5.63;;;4.95;;
48751;SDS011;34544;48.836;9.174;2023-04-28T02:50:52;6.93;;;5.22;;
48751;SDS011;34544;48.836;9.174;2023-04-28T02:53:18;10.60;;;5.80;;
48751;SDS011;34544;48.836;9.174;2023-04-28T02:55:44;6.45;;;5.53;;
48751;SDS011;34544;48.836;9.174;2023-04-28T02:58:10;9.73;;;5.63;;
48751;SDS011;34544;48.836;9.174;2023-04-28T03:00:36;8.85;;;5.45;;
48751;SDS011;34544;48.836;9.174;2023-04-28T03:03:02;9.57;;;5.85;;
48751;SDS011;34544;48.836;9.174;2023-04-28T03:05:28;7.50;;;6.13;;
48751;SDS011;34544;48.836;9.174;2023-04-28T03:07:53;11.38;;;6.57;;
48751;SDS011;34544;48.836;9.174;2023-04-28T03:10:19;9.73;;;6.43;;
48751;SDS011;34544;48.836;9.174;2023-04-28T03:12:45;10.45;;;5.90;;
48751;SDS011;34544;48.836;9.174;2023-04-28T03:15:11;7.78;;;4.82;;
48751;SDS011;34544;48.836;9.174;2023-04-28T03:17:37;8.15;;;6.15;;
48751;SDS011;34544;48.836;9.174;2023-04-28T03:20:07;7.65;;;5.70;;
48751;SDS011;34544;48.836;9.174;2023-04-28T03:22:33;10.68;;;6.20;;
48751;SDS011;34544;48.836;9.174;2023-04-28T03:24:59;6.47;;;5.55;;
48751;SDS011;34544;48.836;9.174;2023-04-28T03:27:27;8.38;;;5.75;;
48751;SDS011;34544;48.836;9.174;2023-04-28T03:29:55;8.02;;;5.28;;
48751;SDS011;34544;48.836;9.174;2023-04-28T03:32:20;6.68;;;5.40;;
48751;SDS011;34544;48.836;9.174;2023-04-28T03:34:46;8.45;;;5.82;;
48751;SDS011;34544;48.836;9.174;2023-04-28T03:37:12;11.10;;;5.68;;
48751;SDS011;34544;48.836;9.174;2023-04-28T03:39:38;7.03;;;5.70;;
48751;SDS011;34544;48.836;9.174;2023-04-28T03:42:04;6.38;;;5.13;;
48751;SDS011;34544;48.836;9.174;2023-04-28T03:44:36;6.28;;;5.15;;
48751;SDS011;34544;48.836;9.174;2023-04-28T03:47:02;12.00;;;6.55;;
48751;SDS011;34544;48.836;9.174;2023-04-28T03:49:28;9.63;;;5.13;;
48751;SDS011;34544;48.836;9.174;2023-04-28T03:51:54;8.70;;;5.30;;
48751;SDS011;34544;48.836;9.174;2023-04-28T03:54:20;8.73;;;5.93;;
48751;SDS011;34544;48.836;9.174;2023-04-28T03:56:46;7.25;;;6.10;;
48751;SDS011;34544;48.836;9.174;2023-04-28T03:59:12;6.32;;;4.95;;
48751;SDS011;34544;48.836;9.174;2023-04-28T04:01:38;7.97;;;5.57;;
48751;SDS011;34544;48.836;9.174;2023-04-28T04:04:03;8.32;;;5.80;;
48751;SDS011;34544;48.836;9.174;2023-04-28T04:06:29;9.25;;;6.90;;
48751;SDS011;34544;48.836;9.174;2023-04-28T04:08:56;11.32;;;6.20;;
48751;SDS011;34544;48.836;9.174;2023-04-28T04:11:21;8.45;;;6.50;;
48751;SDS011;34544;48.836;9.174;2023-04-28T04:13:47;11.05;;;6.15;;
48751;SDS011;34544;48.836;9.174;2023-04-28T04:16:15;11.23;;;6.18;;
48751;SDS011;34544;48.836;9.174;2023-04-28T04:18:41;6.47;;;5.63;;
48751;SDS011;34544;48.836;9.174;2023-04-28T04:21:21;6.95;;;5.50;;
48751;SDS011;34544;48.836;9.174;2023-04-28T04:23:49;9.40;;;5.82;;
48751;SDS011;34544;48.836;9.174;2023-04-28T04:26:15;8.50;;;6.03;;
48751;SDS011;34544;48.836;9.174;2023-04-28T04:28:40;8.30;;;6.20;;
48751;SDS011;34544;48.836;9.174;2023-04-28T04:31:07;6.22;;;5.60;;
48751;SDS011;34544;48.836;9.174;2023-04-28T04:33:33;8.05;;;6.10;;
48751;SDS011;34544;48.836;9.174;2023-04-28T04:36:01;9.75;;;6.15;;
48751;SDS011;34544;48.836;9.174;2023-04-28T04:38:29;7.85;;;6.13;;
48751;SDS011;34544;48.836;9.174;2023-04-28T04:40:55;10.48;;;6.53;;
48751;SDS011;34544;48.836;9.174;2023-04-28T04:43:21;10.13;;;7.00;;
48751;SDS011;34544;48.836;9.174;2023-04-28T04:45:49;7.60;;;6.32;;
48751;SDS011;34544;48.836;9.174;2023-04-28T04:48:15;9.85;;;6.93;;
48751;SDS011;34544;48.836;9.174;2023-04-28T04:50:41;8.00;;;5.80;;
48751;SDS011;34544;48.836;9.174;2023-04-28T04:53:07;8.45;;;6.55;;
48751;SDS011;34544;48.836;9.174;2023-04-28T04:55:33;10.25;;;6.50;;
48751;SDS011;34544;48.836;9.174;2023-04-28T04:57:59;7.78;;;6.55;;
48751;SDS011;34544;48.836;9.174;2023-04-28T05:00:25;12.15;;;7.22;;
48751;SDS011;34544;48.836;9.174;2023-04-28T05:02:52;9.05;;;6.70;;
48751;SDS011;34544;48.836;9.174;2023-04-28T05:05:18;11.80;;;7.13;;
48751;SDS011;34544;48.836;9.174;2023-04-28T05:07:44;8.35;;;6.35;;
48751;SDS011;34544;48.836;9.174;2023-04-28T05:10:10;9.75;;;7.20;;
48751;SDS011;34544;48.836;9.174;2023-04-28T05:12:36;10.00;;;7.55;;
48751;SDS011;34544;48.836;9.174;2023-04-28T05:15:04;13.18;;;7.43;;
48751;SDS011;34544;48.836;9.174;2023-04-28T05:17:31;10.35;;;6.25;;
48751;SDS011;34544;48.836;9.174;2023-04-28T05:19:57;10.07;;;6.78;;
48751;SDS011;34544;48.836;9.174;2023-04-28T05:22:23;8.93;;;7.25;;
48751;SDS011;34544;48.836;9.174;2023-04-28T05:24:50;10.73;;;7.20;;
48751;SDS011;34544;48.836;9.174;2023-04-28T05:27:16;9.57;;;6.90;;
48751;SDS011;34544;48.836;9.174;2023-04-28T05:29:42;9.75;;;7.20;;
48751;SDS011;34544;48.836;9.174;2023-04-28T05:32:09;11.35;;;8.07;;
48751;SDS011;34544;48.836;9.174;2023-04-28T05:34:35;9.70;;;7.50;;
48751;SDS011;34544;48.836;9.174;2023-04-28T05:37:01;9.90;;;8.43;;
48751;SDS011;34544;48.836;9.174;2023-04-28T05:39:29;9.93;;;7.55;;
48751;SDS011;34544;48.836;9.174;2023-04-28T05:41:58;9.77;;;7.15;;
48751;SDS011;34544;48.836;9.174;2023-04-28T05:44:24;8.68;;;7.40;;
48751;SDS011;34544;48.836;9.174;2023-04-28T05:46:52;7.55;;;6.35;;
48751;SDS011;34544;48.836;9.174;2023-04-28T05:49:22;11.15;;;8.50;;
48751;SDS011;34544;48.836;9.174;2023-04-28T05:51:48;16.05;;;7.38;;
48751;SDS011;34544;48.836;9.174;2023-04-28T05:54:14;11.20;;;7.43;;
48751;SDS011;34544;48.836;9.174;2023-04-28T05:56:44;11.80;;;7.60;;
48751;SDS011;34544;48.836;9.174;2023-04-28T05:59:10;8.95;;;7.38;;
48751;SDS011;34544;48.836;9.174;2023-04-28T06:01:35;8.95;;;7.07;;
48751;SDS011;34544;48.836;9.174;2023-04-28T06:04:03;11.75;;;7.57;;
48751;SDS011;34544;48.836;9.174;2023-04-28T06:06:29;11.40;;;6.97;;
48751;SDS011;34544;48.836;9.174;2023-04-28T06:08:57;18.42;;;9.35;;
48751;SDS011;34544;48.836;9.174;2023-04-28T06:11:24;14.15;;;7.97;;
48751;SDS011;34544;48.836;9.174;2023-04-28T06:13:50;10.27;;;7.60;;
48751;SDS011;34544;48.836;9.174;2023-04-28T06:16:16;12.38;;;7.43;;
48751;SDS011;34544;48.836;9.174;2023-04-28T06:18:42;11.73;;;7.07;;
48751;SDS011;34544;48.836;9.174;2023-04-28T06:21:08;7.47;;;5.75;;
48751;SDS011;34544;48.836;9.174;2023-04-28T06:23:34;9.52;;;6.45;;
48751;SDS011;34544;48.836;9.174;2023-04-28T06:26:01;10.90;;;7.18;;
48751;SDS011;34544;48.836;9.174;2023-04-28T06:28:26;8.27;;;7.18;;
48751;SDS011;34544;48.836;9.174;2023-04-28T06:30:52;11.75;;;7.00;;
48751;SDS011;34544;48.836;9.174;2023-04-28T06:33:18;12.80;;;7.70;;
48751;SDS011;34544;48.836;9.174;2023-04-28T06:35:44;7.57;;;6.55;;
48751;SDS011;34544;48.836;9.174;2023-04-28T06:38:10;11.55;;;5.95;;
48751;SDS011;34544;48.836;9.174;2023-04-28T06:40:35;8.95;;;5.57;;
48751;SDS011;34544;48.836;9.174;2023-04-28T06:43:03;12.25;;;6.40;;
48751;SDS011;34544;48.836;9.174;2023-04-28T06:45:36;10.65;;;6.32;;
48751;SDS011;34544;48.836;9.174;2023-04-28T06:48:02;8.68;;;5.75;;
48751;SDS011;34544;48.836;9.174;2023-04-28T06:50:28;7.28;;;5.57;;
48751;SDS011;34544;48.836;9.174;2023-04-28T06:52:54;7.90;;;6.15;;
48751;SDS011;34544;48.836;9.174;2023-04-28T06:55:20;8.82;;;6.28;;
48751;SDS011;34544;48.836;9.174;2023-04-28T06:57:45;8.52;;;6.20;;
48751;SDS011;34544;48.836;9.174;2023-04-28T07:00:11;9.98;;;6.72;;
48751;SDS011;34544;48.836;9.174;2023-04-28T07:02:38;9.25;;;7.22;;
48751;SDS011;34544;48.836;9.174;2023-04-28T07:05:03;12.13;;;6.45;;
48751;SDS011;34544;48.836;9.174;2023-04-28T07:07:29;17.70;;;8.77;;
48751;SDS011;34544;48.836;9.174;2023-04-28T07:09:55;12.10;;;7.63;;
48751;SDS011;34544;48.836;9.174;2023-04-28T07:12:21;11.93;;;7.15;;
48751;SDS011;34544;48.836;9.174;2023-04-28T07:14:47;13.45;;;7.55;;
48751;SDS011;34544;48.836;9.174;2023-04-28T07:17:14;13.32;;;7.55;;
48751;SDS011;34544;48.836;9.174;2023-04-28T07:19:40;11.00;;;6.78;;
48751;SDS011;34544;48.836;9.174;2023-04-28T07:22:06;9.45;;;7.30;;
48751;SDS011;34544;48.836;9.174;2023-04-28T07:24:32;13.30;;;7.68;;
48751;SDS011;34544;48.836;9.174;2023-04-28T07:26:57;10.18;;;7.40;;
48751;SDS011;34544;48.836;9.174;2023-04-28T07:29:23;12.75;;;7.75;;
48751;SDS011;34544;48.836;9.174;2023-04-28T07:31:49;9.23;;;8.25;;
48751;SDS011;34544;48.836;9.174;2023-04-28T07:34:15;11.38;;;7.03;;
48751;SDS011;34544;48.836;9.174;2023-04-28T07:36:40;10.38;;;8.20;;
48751;SDS011;34544;48.836;9.174;2023-04-28T07:39:06;11.20;;;7.43;;
48751;SDS011;34544;48.836;9.174;2023-04-28T07:41:35;9.45;;;7.95;;
48751;SDS011;34544;48.836;9.174;2023-04-28T07:44:03;10.95;;;7.57;;
48751;SDS011;34544;48.836;9.174;2023-04-28T07:46:29;9.13;;;6.82;;
48751;SDS011;34544;48.836;9.174;2023-04-28T07:48:55;11.70;;;7.60;;
48751;SDS011;34544;48.836;9.174;2023-04-28T07:51:21;8.45;;;7.30;;
48751;SDS011;34544;48.836;9.174;2023-04-28T07:53:46;14.02;;;7.18;;
48751;SDS011;34544;48.836;9.174;2023-04-28T07:56:12;9.95;;;7.40;;
48751;SDS011;34544;48.836;9.174;2023-04-28T07:58:37;12.02;;;7.20;;
48751;SDS011;34544;48.836;9.174;2023-04-28T08:01:03;12.60;;;9.38;;
48751;SDS011;34544;48.836;9.174;2023-04-28T08:03:29;17.02;;;8.52;;
48751;SDS011;34544;48.836;9.174;2023-04-28T08:05:55;13.68;;;7.85;;
48751;SDS011;34544;48.836;9.174;2023-04-28T08:08:20;13.18;;;8.90;;
48751;SDS011;34544;48.836;9.174;2023-04-28T08:10:46;21.15;;;9.13;;
48751;SDS011;34544;48.836;9.174;2023-04-28T08:13:12;13.75;;;8.18;;
48751;SDS011;34544;48.836;9.174;2023-04-28T08:15:40;12.52;;;7.97;;
48751;SDS011;34544;48.836;9.174;2023-04-28T08:18:06;12.23;;;7.70;;
48751;SDS011;34544;48.836;9.174;2023-04-28T08:20:32;13.15;;;8.07;;
48751;SDS011;34544;48.836;9.174;2023-04-28T08:22:58;13.57;;;8.13;;
48751;SDS011;34544;48.836;9.174;2023-04-28T08:25:23;10.15;;;7.78;;
48751;SDS011;34544;48.836;9.174;2023-04-28T08:27:49;9.30;;;7.72;;
48751;SDS011;34544;48.836;9.174;2023-04-28T08:30:15;8.80;;;6.43;;
48751;SDS011;34544;48.836;9.174;2023-04-28T08:32:41;10.18;;;7.65;;
48751;SDS011;34544;48.836;9.174;2023-04-28T08:35:06;9.07;;;7.18;;
48751;SDS011;34544;48.836;9.174;2023-04-28T08:37:32;11.18;;;8.13;;
48751;SDS011;34544;48.836;9.174;2023-04-28T08:39:58;11.02;;;9.23;;
48751;SDS011;34544;48.836;9.174;2023-04-28T08:42:29;10.68;;;8.60;;
48751;SDS011;34544;48.836;9.174;2023-04-28T08:44:56;12.05;;;8.07;;
48751;SDS011;34544;48.836;9.174;2023-04-28T08:47:25;9.63;;;7.60;;
48751;SDS011;34544;48.836;9.174;2023-04-28T08:50:03;15.20;;;8.98;;
48751;SDS011;34544;48.836;9.174;2023-04-28T08:52:30;9.05;;;8.10;;
48751;SDS011;34544;48.836;9.174;2023-04-28T08:54:58;9.02;;;7.68;;
48751;SDS011;34544;48.836;9.174;2023-04-28T08:57:29;12.45;;;8.85;;
48751;SDS011;34544;48.836;9.174;2023-04-28T09:00:00;10.73;;;8.00;;
48751;SDS011;34544;48.836;9.174;2023-04-28T09:02:27;11.30;;;8.27;;
48751;SDS011;34544;48.836;9.174;2023-04-28T09:04:52;15.88;;;8.93;;
48751;SDS011;34544;48.836;9.174;2023-04-28T09:07:18;12.07;;;8.70;;
48751;SDS011;34544;48.836;9.174;2023-04-28T09:09:43;8.77;;;7.68;;
48751;SDS011;34544;48.836;9.174;2023-04-28T09:12:09;8.23;;;6.93;;
48751;SDS011;34544;48.836;9.174;2023-04-28T09:14:36;9.73;;;7.07;;
48751;SDS011;34544;48.836;9.174;2023-04-28T09:17:08;8.25;;;6.72;;
48751;SDS011;34544;48.836;9.174;2023-04-28T09:19:36;8.00;;;6.82;;
48751;SDS011;34544;48.836;9.174;2023-04-28T09:22:03;8.88;;;6.97;;
48751;SDS011;34544;48.836;9.174;2023-04-28T09:24:30;8.57;;;6.80;;
48751;SDS011;34544;48.836;9.174;2023-04-28T09:27:01;10.30;;;6.88;;
48751;SDS011;34544;48.836;9.174;2023-04-28T09:29:29;7.55;;;5.90;;
48751;SDS011;34544;48.836;9.174;2023-04-28T09:32:11;9.65;;;6.95;;
48751;SDS011;34544;48.836;9.174;2023-04-28T09:34:41;11.02;;;7.00;;
48751;SDS011;34544;48.836;9.174;2023-04-28T09:37:16;9.98;;;6.72;;
48751;SDS011;34544;48.836;9.174;2023-04-28T09:39:44;9.70;;;7.30;;
48751;SDS011;34544;48.836;9.174;2023-04-28T09:44:56;12.57;;;7.93;;
48751;SDS011;34544;48.836;9.174;2023-04-28T09:47:22;12.65;;;7.18;;
48751;SDS011;34544;48.836;9.174;2023-04-28T09:49:52;9.18;;;6.03;;
48751;SDS011;34544;48.836;9.174;2023-04-28T09:52:22;14.55;;;6.95;;
48751;SDS011;34544;48.836;9.174;2023-04-28T09:54:49;9.52;;;7.05;;
48751;SDS011;34544;48.836;9.174;2023-04-28T09:57:16;11.15;;;6.90;;
48751;SDS011;34544;48.836;9.174;2023-04-28T09:59:45;9.60;;;7.70;;
48751;SDS011;34544;48.836;9.174;2023-04-28T10:02:13;12.00;;;6.97;;
48751;SDS011;34544;48.836;9.174;2023-04-28T10:04:41;10.15;;;6.55;;
48751;SDS011;34544;48.836;9.174;2023-04-28T10:07:09;8.77;;;6.47;;
48751;SDS011;34544;48.836;9.174;2023-04-28T10:09:37;8.95;;;5.82;;
48751;SDS011;34544;48.836;9.174;2023-04-28T10:12:03;8.82;;;5.20;;
48751;SDS011;34544;48.836;9.174;2023-04-28T10:14:30;5.78;;;5.18;;
48751;SDS011;34544;48.836;9.174;2023-04-28T10:16:57;7.13;;;5.13;;
48751;SDS011;34544;48.836;9.174;2023-04-28T10:19:23;8.32;;;5.75;;
48751;SDS011;34544;48.836;9.174;2023-04-28T10:27:43;6.07;;;5.30;;
48751;SDS011;34544;48.836;9.174;2023-04-28T10:30:21;8.45;;;5.95;;
48751;SDS011;34544;48.836;9.174;2023-04-28T10:32:47;7.18;;;5.10;;
48751;SDS011;34544;48.836;9.174;2023-04-28T10:35:39;5.55;;;4.57;;
48751;SDS011;34544;48.836;9.174;2023-04-28T10:40:33;6.35;;;3.92;;
48751;SDS011;34544;48.836;9.174;2023-04-28T10:43:00;5.43;;;2.60;;
48751;SDS011;34544;48.836;9.174;2023-04-28T10:48:16;1.95;;;1.00;;
48751;SDS011;34544;48.836;9.174;2023-04-28T10:51:26;1.98;;;0.90;;
48751;SDS011;34544;48.836;9.174;2023-04-28T10:56:12;3.20;;;1.20;;
48751;SDS011;34544;48.836;9.174;2023-04-28T10:58:40;0.55;;;0.50;;
48751;SDS011;34544;48.836;9.174;2023-04-28T11:01:30;0.55;;;0.55;;
48751;SDS011;34544;48.836;9.174;2023-04-28T11:06:45;2.40;;;0.98;;
48751;SDS011;34544;48.836;9.174;2023-04-28T11:16:57;0.32;;;0.20;;
48751;SDS011;34544;48.836;9.174;2023-04-28T11:21:57;1.17;;;0.45;;
48751;SDS011;34544;48.836;9.174;2023-04-28T11:24:28;1.88;;;0.70;;
48751;SDS011;34544;48.836;9.174;2023-04-28T11:26:55;0.40;;;0.40;;
48751;SDS011;34544;48.836;9.174;2023-04-28T11:29:43;0.50;;;0.32;;
48751;SDS011;34544;48.836;9.174;2023-04-28T11:32:08;0.43;;;0.40;;
48751;SDS011;34544;48.836;9.174;2023-04-28T11:34:35;0.60;;;0.40;;
48751;SDS011;34544;48.836;9.174;2023-04-28T11:37:01;1.02;;;0.50;;
48751;SDS011;34544;48.836;9.174;2023-04-28T11:39:31;0.52;;;0.40;;
48751;SDS011;34544;48.836;9.174;2023-04-28T11:41:58;1.00;;;0.30;;
48751;SDS011;34544;48.836;9.174;2023-04-28T11:44:26;0.90;;;0.73;;
48751;SDS011;34544;48.836;9.174;2023-04-28T11:46:54;1.15;;;0.50;;
48751;SDS011;34544;48.836;9.174;2023-04-28T11:49:25;0.98;;;0.45;;
48751;SDS011;34544;48.836;9.174;2023-04-28T11:51:55;2.47;;;0.43;;
48751;SDS011;34544;48.836;9.174;2023-04-28T11:54:22;4.65;;;0.80;;
48751;SDS011;34544;48.836;9.174;2023-04-28T11:56:50;0.60;;;0.60;;
48751;SDS011;34544;48.836;9.174;2023-04-28T11:59:17;1.48;;;0.98;;
48751;SDS011;34544;48.836;9.174;2023-04-28T12:07:02;1.20;;;0.57;;
48751;SDS011;34544;48.836;9.174;2023-04-28T12:09:38;0.60;;;0.60;;
48751;SDS011;34544;48.836;9.174;2023-04-28T12:12:09;1.25;;;0.60;;
48751;SDS011;34544;48.836;9.174;2023-04-28T12:17:26;1.58;;;0.52;;
48751;SDS011;34544;48.836;9.174;2023-04-28T12:19:58;0.65;;;0.65;;
48751;SDS011;34544;48.836;9.174;2023-04-28T12:22:25;1.33;;;0.70;;
48751;SDS011;34544;48.836;9.174;2023-04-28T12:27:29;2.38;;;0.90;;
48751;SDS011;34544;48.836;9.174;2023-04-28T12:29:56;2.28;;;0.73;;
48751;SDS011;34544;48.836;9.174;2023-04-28T12:32:37;0.90;;;0.82;;
48751;SDS011;34544;48.836;9.174;2023-04-28T12:35:09;2.35;;;0.82;;
48751;SDS011;34544;48.836;9.174;2023-04-28T12:37:36;1.65;;;0.80;;
48751;SDS011;34544;48.836;9.174;2023-04-28T12:40:04;1.23;;;1.05;;
48751;SDS011;34544;48.836;9.174;2023-04-28T12:42:30;1.65;;;1.00;;
48751;SDS011;34544;48.836;9.174;2023-04-28T12:44:56;0.65;;;0.55;;
48751;SDS011;34544;48.836;9.174;2023-04-28T12:47:22;1.88;;;0.50;;
48751;SDS011;34544;48.836;9.174;2023-04-28T12:49:48;1.55;;;0.47;;
48751;SDS011;34544;48.836;9.174;2023-04-28T12:52:17;0.50;;;0.40;;
48751;SDS011;34544;48.836;9.174;2023-04-28T12:54:43;3.47;;;0.60;;
48751;SDS011;34544;48.836;9.174;2023-04-28T12:57:11;0.95;;;0.60;;
48751;SDS011;34544;48.836;9.174;2023-04-28T12:59:37;0.45;;;0.32;;
48751;SDS011;34544;48.836;9.174;2023-04-28T13:02:03;1.13;;;0.40;;
48751;SDS011;34544;48.836;9.174;2023-04-28T13:04:29;0.65;;;0.43;;
48751;SDS011;34544;48.836;9.174;2023-04-28T13:06:56;0.95;;;0.60;;
48751;SDS011;34544;48.836;9.174;2023-04-28T13:09:23;1.27;;;0.50;;
48751;SDS011;34544;48.836;9.174;2023-04-28T13:11:49;0.68;;;0.32;;
48751;SDS011;34544;48.836;9.174;2023-04-28T13:14:17;0.57;;;0.30;;
48751;SDS011;34544;48.836;9.174;2023-04-28T13:16:44;0.82;;;0.65;;
48751;SDS011;34544;48.836;9.174;2023-04-28T13:19:09;1.13;;;0.50;;
48751;SDS011;34544;48.836;9.174;2023-04-28T13:21:38;1.13;;;0.70;;
48751;SDS011;34544;48.836;9.174;2023-04-28T13:24:05;1.83;;;0.88;;
48751;SDS011;34544;48.836;9.174;2023-04-28T13:26:32;1.90;;;0.40;;
48751;SDS011;34544;48.836;9.174;2023-04-28T13:28:58;0.73;;;0.50;;
48751;SDS011;34544;48.836;9.174;2023-04-28T13:31:25;4.85;;;0.60;;
48751;SDS011;34544;48.836;9.174;2023-04-28T13:33:51;1.63;;;0.43;;
48751;SDS011;34544;48.836;9.174;2023-04-28T13:36:17;1.15;;;0.60;;
48751;SDS011;34544;48.836;9.174;2023-04-28T13:38:42;4.32;;;0.60;;
48751;SDS011;34544;48.836;9.174;2023-04-28T13:41:12;7.57;;;0.98;;
48751;SDS011;34544;48.836;9.174;2023-04-28T13:43:39;3.83;;;0.50;;
48751;SDS011;34544;48.836;9.174;2023-04-28T13:46:05;0.95;;;0.50;;
48751;SDS011;34544;48.836;9.174;2023-04-28T13:48:35;1.00;;;0.90;;
48751;SDS011;34544;48.836;9.174;2023-04-28T13:51:02;0.88;;;0.50;;
48751;SDS011;34544;48.836;9.174;2023-04-28T13:53:29;1.30;;;0.50;;
48751;SDS011;34544;48.836;9.174;2023-04-28T13:55:55;1.27;;;0.55;;
48751;SDS011;34544;48.836;9.174;2023-04-28T13:58:24;1.98;;;0.80;;
48751;SDS011;34544;48.836;9.174;2023-04-28T14:00:51;2.17;;;0.45;;
48751;SDS011;34544;48.836;9.174;2023-04-28T14:03:18;2.15;;;0.98;;
48751;SDS011;34544;48.836;9.174;2023-04-28T14:05:47;1.02;;;0.70;;
48751;SDS011;34544;48.836;9.174;2023-04-28T14:08:13;2.83;;;0.95;;
48751;SDS011;34544;48.836;9.174;2023-04-28T14:10:39;5.10;;;1.70;;
48751;SDS011;34544;48.836;9.174;2023-04-28T14:13:05;5.97;;;1.20;;
48751;SDS011;34544;48.836;9.174;2023-04-28T14:15:31;1.80;;;0.75;;
48751;SDS011;34544;48.836;9.174;2023-04-28T14:17:57;2.75;;;0.85;;
48751;SDS011;34544;48.836;9.174;2023-04-28T14:20:23;5.13;;;0.90;;
48751;SDS011;34544;48.836;9.174;2023-04-28T14:22:48;0.60;;;0.55;;
48751;SDS011;34544;48.836;9.174;2023-04-28T14:25:15;6.10;;;1.50;;
48751;SDS011;34544;48.836;9.174;2023-04-28T14:27:41;5.82;;;1.27;;
48751;SDS011;34544;48.836;9.174;2023-04-28T14:30:07;3.35;;;0.98;;
48751;SDS011;34544;48.836;9.174;2023-04-28T14:32:33;2.67;;;1.40;;
48751;SDS011;34544;48.836;9.174;2023-04-28T14:35:00;1.65;;;1.38;;
48751;SDS011;34544;48.836;9.174;2023-04-28T14:37:29;1.20;;;0.80;;
48751;SDS011;34544;48.836;9.174;2023-04-28T14:39:55;2.13;;;1.23;;
48751;SDS011;34544;48.836;9.174;2023-04-28T14:42:21;2.20;;;1.20;;
48751;SDS011;34544;48.836;9.174;2023-04-28T14:44:52;2.38;;;1.10;;
48751;SDS011;34544;48.836;9.174;2023-04-28T14:47:18;3.35;;;1.80;;
48751;SDS011;34544;48.836;9.174;2023-04-28T14:49:43;6.93;;;1.10;;
48751;SDS011;34544;48.836;9.174;2023-04-28T14:52:11;3.13;;;1.00;;
48751;SDS011;34544;48.836;9.174;2023-04-28T14:54:37;2.60;;;1.45;;
48751;SDS011;34544;48.836;9.174;2023-04-28T14:57:03;4.22;;;1.38;;
48751;SDS011;34544;48.836;9.174;2023-04-28T14:59:28;2.03;;;0.90;;
48751;SDS011;34544;48.836;9.174;2023-04-28T15:01:54;5.18;;;1.38;;
48751;SDS011;34544;48.836;9.174;2023-04-28T15:04:20;2.47;;;1.20;;
48751;SDS011;34544;48.836;9.174;2023-04-28T15:06:52;5.28;;;1.80;;
48751;SDS011;34544;48.836;9.174;2023-04-28T15:09:18;2.38;;;1.70;;
48751;SDS011;34544;48.836;9.174;2023-04-28T15:11:44;2.08;;;1.60;;
48751;SDS011;34544;48.836;9.174;2023-04-28T15:14:10;3.58;;;2.05;;
48751;SDS011;34544;48.836;9.174;2023-04-28T15:16:35;4.63;;;1.98;;
48751;SDS011;34544;48.836;9.174;2023-04-28T15:19:01;2.85;;;2.45;;
48751;SDS011;34544;48.836;9.174;2023-04-28T15:21:27;4.70;;;1.65;;
48751;SDS011;34544;48.836;9.174;2023-04-28T15:23:53;2.75;;;1.63;;